• Join FlightAware (Why Join?)
  • Login
  • US Flag 
08:13AM EDT


 

Airport Tracker/Info


-or-


 

Live Flight TrackerFlight Track Log ✈ SKW7367 ✈ 23-Sep-2013 ✈ KDTW - KAPN

Flight Track Log - Related Links

Times and Time Zones

All times are in EDT time to prevent confusion due to time zone crossing. See the SKW7367 flight status page for this flight to view local times or setup timezone preferences in your user account.

Time Position Orientation Groundspeed Altitude Reporting Facility
EDT Latitude Longitude Course Direction KTS MPH feet Rate Location/Type
04:38PM 42.2214 -83.3581 312° West 149 171 1,200  Level Cleveland Center
04:38PM 42.2533 -83.3511 North 190 219 2,600 2,280 Climbing Cleveland Center
04:39PM 42.3025 -83.3383 11° North 251 289 4,700 2,700 Climbing Cleveland Center
04:40PM 42.3561 -83.3211 13° North 251 289 7,100 2,940 Climbing Cleveland Center
04:40PM 42.3989 -83.3125 North 285 328 8,600 2,880 Climbing Cleveland Center
04:41PM 42.6186 -83.3815 340° North  Level Estimated
04:41PM 42.4358 -83.3144 358° North 283 326 10,100  Level Cleveland Center
04:42PM 42.7201 -83.3886 North  Level Estimated
04:42PM 42.5181 -83.3256 354° North 295 339 12,100  Level Cleveland Center
04:43PM 42.8217 -83.3958 312° West  Level Estimated
04:43PM 42.6072 -83.3314 357° North 318 366 14,200  Level Cleveland Center
04:44PM 42.6969 -83.3403 356° North 323 372 16,200 1,560 Climbing Cleveland Center
04:45PM 42.8133 -83.3483 357° North 350 403 17,500 960 Climbing Cleveland Center
04:46PM 42.9172 -83.3575 356° North 371 427 18,300 840 Climbing Cleveland Center
04:47PM 43.0264 -83.3719 354° North 391 450 19,300 900 Climbing Cleveland Center
04:49PM 43.2269 -83.3878 357° North 396 456 21,000 540 Climbing Minneapolis Center
04:50PM 43.3417 -83.3989 356° North 407 468 21,000  Level Minneapolis Center
04:51PM 43.5039 -83.4111 357° North 422 486 21,000  Level Cleveland Center
04:52PM 43.6200 -83.4211 356° North 419 482 21,000  Level Cleveland Center
04:53PM 43.6947 -83.4294 355° North 422 486 21,000  Level Minneapolis Center
04:54PM 43.8328 -83.4419 356° North 418 481 21,000  Level Minneapolis Center
04:55PM 43.9547 -83.4517 357° North 418 481 21,000  Level Minneapolis Center
04:56PM 44.0644 -83.4622 356° North 403 464 21,000 -780 Level Minneapolis Center
04:57PM 44.1814 -83.4775 355° North 396 456 19,500 -2,100 Descending Minneapolis Center
04:58PM 44.2858 -83.4886 356° North 384 442 16,700 -2,940 Descending Minneapolis Center
04:59PM 44.3925 -83.5031 354° North 365 420 13,500 -2,820 Descending Minneapolis Center
05:00PM 44.4919 -83.5142 355° North 337 388 10,900 -1,920 Descending Minneapolis Center
05:01PM 44.5764 -83.5244 355° North 312 359 9,600 -1,500 Descending Minneapolis Center
05:02PM 44.6539 -83.5339 355° North 263 303 7,900 -1,620 Descending Minneapolis Center
05:03PM 44.7289 -83.5431 355° North 271 312 6,300 -1,440 Descending Minneapolis Center
05:04PM 44.8097 -83.5525 355° North 273 314 5,000 -720 Descending Minneapolis Center
05:05PM 44.8792 -83.5597 356° North 260 299 4,800 -540 Descending Minneapolis Center
05:07PM 44.9428 -83.5586 North 218 251 3,900 -1,140 Descending Minneapolis Center
05:08PM 44.9964 -83.5597 359° North 202 232 2,500 -1,260 Descending Minneapolis Center
05:09PM 45.0394 -83.5611 359° North 146 168 1,300 -1,200 Descending Minneapolis Center